Glen Park, New York
Current Conditions -  °F | °C
As of 4:31 AM on Thursday 18 Dec 2014 (Local Time) from KART Reporting Station
Light Snow Light Snow  
Wind Chill: 25°   Ceiling: 1300
Heat Index: 34°   Visibility: 5mi
Dew Point: 29°   Wind: 14mph
Humidity: 82%   Direction: 270°W
Pressure: 29.9"   Gusts: NA
Location:  43.9663°N, 75.9119°W
Report Text: KART 180931Z AUTO 27012KT 5SM -SN SCT010 BKN013 OVC021 01/M02 A2990 RMK AO2 P0000 T00111017
Loading
Personal Weather Stations






























Interactive Weather Map New forecast layout! Learn more

10-Day Weather Forecast

Advertisements
Track Severe Weather on mobile